createdAt,value
2018-11-11T00:01:41.119Z,68.71
2018-11-11T00:06:45.259Z,68.77
2018-11-11T00:11:49.038Z,68.37
2018-11-11T00:16:53.638Z,68.07
2018-11-11T00:21:57.499Z,67.91
2018-11-11T00:27:01.441Z,68.22
2018-11-11T00:32:05.031Z,67.65
2018-11-11T00:37:09.186Z,67.99
2018-11-11T00:42:12.790Z,68.03
2018-11-11T00:47:16.388Z,68.07
2018-11-11T00:52:20.241Z,68.26
2018-11-11T00:57:24.068Z,68.12
2018-11-11T01:02:27.969Z,68.07
2018-11-11T01:07:31.482Z,68.29
2018-11-11T01:12:35.002Z,68.56
2018-11-11T01:17:39.139Z,68.59
2018-11-11T01:22:43.139Z,68.38
2018-11-11T01:27:46.550Z,68.59
2018-11-11T01:32:50.087Z,68.76
2018-11-11T01:37:53.750Z,68.92
2018-11-11T01:42:57.887Z,68.98
2018-11-11T01:48:01.631Z,69.24
2018-11-11T01:53:05.974Z,69.49
2018-11-11T01:58:10.022Z,69.06
2018-11-11T02:03:13.740Z,69.20
2018-11-11T02:08:17.587Z,69.76
2018-11-11T02:13:21.630Z,69.77
2018-11-11T02:18:25.726Z,69.69
2018-11-11T02:23:29.575Z,69.89
2018-11-11T02:28:33.321Z,69.99
2018-11-11T02:33:37.419Z,69.84
2018-11-11T02:38:41.235Z,70.24
2018-11-11T02:43:45.077Z,69.95
2018-11-11T02:48:49.272Z,70.24
2018-11-11T02:53:52.839Z,69.86
2018-11-11T02:58:56.522Z,69.78
2018-11-11T03:04:00.075Z,69.63
2018-11-11T03:09:04.905Z,69.57
2018-11-11T03:14:08.579Z,69.27
2018-11-11T03:19:12.499Z,69.84
2018-11-11T03:24:16.207Z,69.80
2018-11-11T03:29:19.822Z,70.34
2018-11-11T03:34:23.737Z,70.35
2018-11-11T03:39:27.471Z,70.73
2018-11-11T03:44:31.223Z,70.73
2018-11-11T03:49:34.904Z,70.39
2018-11-11T03:54:38.764Z,70.68
2018-11-11T03:59:42.115Z,70.88
2018-11-11T04:04:45.522Z,71.08
2018-11-11T04:09:49.533Z,71.15
2018-11-11T04:14:53.330Z,71.43
2018-11-11T04:19:56.931Z,71.64
2018-11-11T04:25:01.493Z,71.60
2018-11-11T04:30:06.684Z,72.30
2018-11-11T04:35:10.439Z,72.36
2018-11-11T04:40:14.493Z,72.34
2018-11-11T04:45:18.157Z,73.51
2018-11-11T04:50:21.955Z,73.97
2018-11-11T04:55:25.815Z,74.92
2018-11-11T05:00:29.937Z,74.84
2018-11-11T05:05:33.759Z,75.44
2018-11-11T05:10:37.670Z,75.52
2018-11-11T05:15:41.823Z,75.97
2018-11-11T05:20:45.913Z,76.33
2018-11-11T05:25:49.903Z,76.27
2018-11-11T05:30:54.002Z,76.89
2018-11-11T05:35:58.228Z,76.28
2018-11-11T05:41:02.141Z,76.48
2018-11-11T05:46:06.217Z,76.71
2018-11-11T05:51:10.230Z,77.00
2018-11-11T05:56:14.306Z,77.46
2018-11-11T06:01:18.284Z,77.54
2018-11-11T06:06:22.472Z,77.62
2018-11-11T06:11:26.165Z,78.03
2018-11-11T06:16:30.010Z,78.29
2018-11-11T06:21:33.576Z,78.21
2018-11-11T06:26:37.156Z,78.28
2018-11-11T06:31:40.570Z,78.77
2018-11-11T06:36:43.885Z,78.33
2018-11-11T06:41:47.225Z,78.13
2018-11-11T06:46:50.746Z,77.98
2018-11-11T06:51:54.687Z,77.93
2018-11-11T06:56:58.643Z,77.73
2018-11-11T07:02:02.365Z,77.84
2018-11-11T07:07:06.201Z,77.24
2018-11-11T07:12:09.874Z,76.70
2018-11-11T07:17:13.470Z,76.33
2018-11-11T07:22:17.351Z,76.05
2018-11-11T07:27:20.913Z,76.09
2018-11-11T07:32:24.510Z,76.34
2018-11-11T07:37:28.055Z,75.52
2018-11-11T07:42:32.274Z,75.20
2018-11-11T07:47:35.833Z,75.25
2018-11-11T07:52:39.501Z,74.18
2018-11-11T07:57:43.283Z,74.27
2018-11-11T08:02:47.570Z,72.95
2018-11-11T08:13:33.995Z,73.24
2018-11-11T08:18:37.748Z,72.53
2018-11-11T08:23:41.236Z,72.08
2018-11-11T08:28:45.499Z,71.26
2018-11-11T08:33:49.440Z,70.70
2018-11-11T08:38:53.191Z,70.75
2018-11-11T08:43:56.725Z,70.66
2018-11-11T08:49:00.371Z,70.49
2018-11-11T08:54:04.355Z,71.18
2018-11-11T08:59:07.823Z,69.20
2018-11-11T09:04:11.347Z,69.17
2018-11-11T09:09:14.814Z,69.18
2018-11-11T09:14:18.635Z,68.88
2018-11-11T09:19:22.626Z,68.46
2018-11-11T09:24:27.738Z,68.77
2018-11-11T09:29:31.652Z,68.65
2018-11-11T09:34:35.541Z,66.40
2018-11-11T09:39:39.289Z,65.74
2018-11-11T09:44:43.152Z,66.83
2018-11-11T09:49:46.998Z,67.05
2018-11-11T09:54:50.673Z,67.01
2018-11-11T09:59:54.509Z,67.34
2018-11-11T10:05:10.276Z,68.36
2018-11-11T10:10:50.612Z,68.01
2018-11-11T10:16:34.789Z,69.05
2018-11-11T10:23:51.443Z,71.38
2018-11-11T10:29:05.517Z,73.69
2018-11-11T10:34:18.599Z,74.47
2018-11-11T10:39:36.884Z,74.31
2018-11-11T10:44:47.093Z,74.80
2018-11-11T10:49:53.708Z,74.35
2018-11-11T10:54:57.350Z,74.25
2018-11-11T11:00:01.227Z,72.87
2018-11-11T11:05:09.893Z,68.77
2018-11-11T11:10:13.957Z,69.03
2018-11-11T11:15:19.099Z,71.21
2018-11-11T11:20:22.968Z,67.97
2018-11-11T11:25:27.040Z,45.85
2018-11-11T11:30:30.738Z,40.29
2018-11-11T11:35:34.576Z,39.41
2018-11-11T11:40:37.961Z,37.54
2018-11-11T11:45:41.342Z,37.82
2018-11-11T11:50:44.888Z,32.56
2018-11-11T11:55:48.742Z,29.64
2018-11-11T12:00:52.362Z,29.27
2018-11-11T12:05:56.111Z,31.11
2018-11-11T12:12:10.334Z,30.41
2018-11-11T12:17:14.157Z,38.87
2018-11-11T12:22:17.843Z,36.98
2018-11-11T12:27:21.561Z,33.93
2018-11-11T12:32:25.098Z,28.89
2018-11-11T12:37:28.742Z,30.85
2018-11-11T12:42:32.226Z,33.43
2018-11-11T12:47:37.128Z,37.05
2018-11-11T12:52:40.730Z,33.02
2018-11-11T12:57:44.293Z,28.84
2018-11-11T13:02:47.600Z,33.81
2018-11-11T13:07:50.978Z,27.91
2018-11-11T13:12:54.272Z,29.28
2018-11-11T13:17:58.418Z,39.70
2018-11-11T13:23:03.448Z,48.17
2018-11-11T13:28:07.201Z,52.60
2018-11-11T13:33:10.862Z,55.13
2018-11-11T13:38:14.718Z,56.07
2018-11-11T13:43:18.850Z,56.38
2018-11-11T13:48:22.534Z,56.56
2018-11-11T13:53:26.292Z,57.35
2018-11-11T13:58:30.602Z,58.18
2018-11-11T14:03:34.390Z,58.56
2018-11-11T14:08:38.108Z,58.99
2018-11-11T14:13:41.609Z,58.50
2018-11-11T14:18:45.332Z,58.51
2018-11-11T14:23:48.649Z,58.41
2018-11-11T14:28:52.973Z,59.63
2018-11-11T14:33:56.785Z,59.85
2018-11-11T14:39:00.442Z,60.89
2018-11-11T14:44:03.912Z,61.25
2018-11-11T14:49:08.173Z,61.88
2018-11-11T14:54:11.809Z,62.17
2018-11-11T14:59:15.802Z,63.20
2018-11-11T15:04:21.600Z,64.20
2018-11-11T15:09:25.294Z,64.50
2018-11-11T15:14:28.821Z,64.22
2018-11-11T15:19:32.447Z,64.17
2018-11-11T15:24:35.529Z,65.07
2018-11-11T15:29:38.976Z,65.28
2018-11-11T15:34:42.473Z,65.67
2018-11-11T15:39:45.881Z,65.79
2018-11-11T15:44:49.181Z,66.03
2018-11-11T15:49:52.733Z,66.05
2018-11-11T15:54:56.253Z,65.84
2018-11-11T15:59:59.822Z,66.54
2018-11-11T16:05:03.855Z,66.21
2018-11-11T16:10:08.732Z,66.59
2018-11-11T16:15:18.451Z,66.71
2018-11-11T16:20:23.333Z,67.58
2018-11-11T16:25:27.016Z,67.95
2018-11-11T16:30:33.232Z,68.12
2018-11-11T16:35:42.504Z,68.59
2018-11-11T16:40:46.051Z,68.74
2018-11-11T16:45:49.540Z,68.60
2018-11-11T16:50:53.429Z,69.28
2018-11-11T16:55:56.749Z,69.52
2018-11-11T17:01:00.303Z,69.54
2018-11-11T17:06:05.236Z,68.73
2018-11-11T17:11:08.953Z,69.22
2018-11-11T17:16:20.898Z,69.71
2018-11-11T17:21:24.788Z,69.87
2018-11-11T17:26:28.564Z,69.44
2018-11-11T17:31:32.032Z,69.54
2018-11-11T17:36:36.326Z,69.68
2018-11-11T17:41:40.885Z,69.75
2018-11-11T17:46:44.592Z,69.64
2018-11-11T17:51:48.223Z,69.87
2018-11-11T17:56:52.294Z,70.50
2018-11-11T18:01:55.818Z,70.54
2018-11-11T18:06:59.651Z,69.89
2018-11-11T18:12:03.557Z,70.25
2018-11-11T18:17:07.276Z,70.18
2018-11-11T18:22:14.465Z,70.56
2018-11-11T18:27:19.121Z,70.12
2018-11-11T18:32:23.598Z,70.29
2018-11-11T18:37:27.572Z,70.25
2018-11-11T18:42:32.438Z,70.12
2018-11-11T18:47:36.988Z,70.28
2018-11-11T18:52:43.805Z,69.61
2018-11-11T18:57:47.961Z,69.36
2018-11-11T19:02:56.254Z,69.40
2018-11-11T19:08:03.554Z,68.76
2018-11-11T19:13:09.989Z,68.48
2018-11-11T19:18:14.180Z,67.81
2018-11-11T19:23:19.303Z,67.96
2018-11-11T19:28:24.802Z,68.11
2018-11-11T19:33:30.761Z,67.63
2018-11-11T19:38:34.790Z,66.96
2018-11-11T19:43:38.527Z,67.10
2018-11-11T19:48:42.938Z,66.85
2018-11-11T19:53:46.829Z,67.08
2018-11-11T19:58:50.695Z,67.01
2018-11-11T20:03:54.375Z,67.14
2018-11-11T20:08:58.855Z,67.02
2018-11-11T20:14:02.677Z,67.10
2018-11-11T20:19:06.493Z,66.65
2018-11-11T20:24:10.117Z,67.15
2018-11-11T20:29:13.907Z,67.00
2018-11-11T20:34:17.660Z,66.40
2018-11-11T20:39:21.676Z,66.56
2018-11-11T20:44:26.361Z,66.83
2018-11-11T20:49:30.461Z,66.48
2018-11-11T20:54:37.790Z,66.59
2018-11-11T20:59:41.723Z,66.48
2018-11-11T21:04:45.507Z,65.97
2018-11-11T21:09:49.228Z,66.28
2018-11-11T21:14:53.041Z,66.35
2018-11-11T21:19:56.458Z,66.41
2018-11-11T21:25:00.227Z,66.05
2018-11-11T21:30:04.000Z,66.05
2018-11-11T21:35:07.625Z,66.39
2018-11-11T21:40:13.750Z,66.05
2018-11-11T21:45:18.598Z,66.12
2018-11-11T21:50:23.270Z,66.52
2018-11-11T21:55:26.765Z,66.24
2018-11-11T22:00:30.311Z,66.46
2018-11-11T22:05:33.837Z,66.49
2018-11-11T22:10:37.444Z,66.30
2018-11-11T22:15:41.030Z,66.38
2018-11-11T22:20:44.677Z,67.01
2018-11-11T22:25:48.022Z,66.96
2018-11-11T22:30:51.503Z,67.13
2018-11-11T22:35:55.099Z,67.12
2018-11-11T22:40:58.911Z,67.76
2018-11-11T22:46:02.353Z,67.64
2018-11-11T22:51:06.030Z,67.81
2018-11-11T22:56:09.354Z,67.57
2018-11-11T23:01:18.125Z,68.11
2018-11-11T23:06:21.453Z,67.80
2018-11-11T23:11:26.557Z,68.30
2018-11-11T23:16:31.171Z,68.60
2018-11-11T23:21:36.228Z,68.25
2018-11-11T23:26:40.261Z,68.44
2018-11-11T23:31:44.528Z,68.75
2018-11-11T23:36:54.525Z,68.52
2018-11-11T23:42:13.266Z,68.87
2018-11-11T23:47:17.532Z,68.60
2018-11-11T23:52:23.036Z,68.04
2018-11-11T23:57:27.330Z,68.01
